Time;durP1;ratioP1;P1;durP2;ratioP2;P2;SDS_P1;SDS_P2;PMS_P1;PMS_P2;Temp;Humidity;BMP_temperature;BMP_pressure;BME280_temperature;BME280_humidity;BME280_pressure;Samples;Min_cycle;Max_cycle;Signal;HPM_P1;HPM_P2
2023/08/25 00:01:46;;;;;;;8.63;5.88;;;;;;;19.14;89.72;100780.66;4922490;29;20066;-72
2023/08/25 00:04:12;;;;;;;6.90;6.22;;;;;;;19.13;89.83;100776.38;4916654;29;20409;-72
2023/08/25 00:06:37;;;;;;;8.27;6.47;;;;;;;19.15;89.86;100770.59;4919008;29;20127;-72
2023/08/25 00:09:03;;;;;;;7.65;6.07;;;;;;;19.16;89.77;100759.41;4921867;29;20599;-72
2023/08/25 00:11:29;;;;;;;8.38;6.35;;;;;;;19.17;90.03;100758.31;4935730;28;20050;-73
2023/08/25 00:13:54;;;;;;;6.65;6.00;;;;;;;19.16;89.86;100755.91;4913886;29;20050;-71
2023/08/25 00:16:20;;;;;;;8.18;7.38;;;;;;;19.13;90.05;100754.66;4921433;29;20046;-71
2023/08/25 00:18:46;;;;;;;10.32;8.35;;;;;;;19.14;90.03;100764.38;4905366;28;20409;-71
2023/08/25 00:21:11;;;;;;;7.47;6.63;;;;;;;19.14;90.23;100758.94;4905050;29;20042;-72
2023/08/25 00:23:38;;;;;;;7.68;6.70;;;;;;;19.15;90.33;100765.97;4921244;29;20557;-74
2023/08/25 00:26:03;;;;;;;7.50;6.70;;;;;;;19.14;90.46;100753.53;4922585;29;20039;-72
2023/08/25 00:28:29;;;;;;;9.48;6.68;;;;;;;19.16;90.46;100751.25;4930640;28;20704;-72
2023/08/25 00:30:54;;;;;;;7.78;6.95;;;;;;;19.13;90.42;100751.94;4936891;28;20043;-74
2023/08/25 00:33:20;;;;;;;7.95;6.22;;;;;;;19.12;90.63;100744.91;4927355;29;20031;-73
2023/08/25 00:35:46;;;;;;;8.32;7.15;;;;;;;19.12;90.35;100742.19;4909778;29;20043;-73
2023/08/25 00:38:14;;;;;;;9.90;7.78;;;;;;;19.11;90.55;100748.75;4921361;29;20436;-72
2023/08/25 00:40:40;;;;;;;10.15;7.22;;;;;;;19.10;90.63;100766.13;4920228;29;20034;-72
2023/08/25 00:43:06;;;;;;;7.63;6.78;;;;;;;19.11;90.60;100748.75;4902352;29;20048;-72
2023/08/25 00:45:37;;;;;;;9.82;6.93;;;;;;;19.13;91.24;100746.50;4899305;29;20043;-73
2023/08/25 00:48:03;;;;;;;8.95;8.05;;;;;;;19.12;91.03;100744.91;4919756;29;20163;-72
2023/08/25 00:50:29;;;;;;;6.85;6.15;;;;;;;19.09;90.99;100735.47;4919827;29;20115;-72
2023/08/25 00:52:55;;;;;;;8.73;7.82;;;;;;;19.09;91.07;100735.47;4887415;29;20036;-72
2023/08/25 00:55:23;;;;;;;9.07;6.45;;;;;;;19.09;91.09;100737.41;4911531;29;20046;-73
2023/08/25 00:57:48;;;;;;;9.48;7.15;;;;;;;19.09;90.96;100734.69;4906423;29;20040;-73
2023/08/25 01:00:14;;;;;;;6.97;6.28;;;;;;;19.10;90.81;100736.28;4907787;29;20047;-72
2023/08/25 01:02:40;;;;;;;8.60;6.45;;;;;;;19.11;90.95;100734.38;4916643;29;20055;-72
2023/08/25 01:05:07;;;;;;;8.23;7.35;;;;;;;19.08;91.09;100733.91;4904190;29;20039;-71
2023/08/25 01:07:33;;;;;;;7.70;5.60;;;;;;;19.08;90.46;100730.41;4919540;29;20051;-71
2023/08/25 01:09:59;;;;;;;8.10;7.25;;;;;;;19.07;90.65;100729.59;4933041;28;20036;-73
2023/08/25 01:12:54;;;;;;;8.38;6.70;;;;;;;19.06;91.03;100719.06;4923218;29;20116;-73
2023/08/25 01:15:30;;;;;;;7.43;6.15;;;;;;;19.02;91.65;100718.91;4920906;29;20521;-74
2023/08/25 01:18:15;;;;;;;9.52;6.63;;;;;;;19.03;91.40;100720.53;4898773;29;20052;-71
2023/08/25 01:20:46;;;;;;;9.68;6.80;;;;;;;19.02;91.42;100712.69;4934855;28;20123;-74
2023/08/25 01:23:16;;;;;;;8.07;6.05;;;;;;;19.02;91.12;100712.69;4914811;29;20036;-74
2023/08/25 01:25:45;;;;;;;8.40;7.30;;;;;;;18.99;90.91;100713.38;4927762;29;20046;-71
2023/08/25 01:28:11;;;;;;;6.90;6.25;;;;;;;18.97;91.03;100716.41;4889873;29;20039;-72
2023/08/25 01:30:37;;;;;;;9.05;6.55;;;;;;;18.96;91.43;100714.00;4920067;29;20044;-72
2023/08/25 01:33:04;;;;;;;6.85;4.88;;;;;;;18.95;91.09;100712.41;4920781;29;20852;-74
2023/08/25 01:35:46;;;;;;;7.45;4.78;;;;;;;18.95;90.79;100712.41;4935371;28;20179;-73
2023/08/25 01:38:31;;;;;;;7.25;5.55;;;;;;;18.93;90.98;100728.22;4904233;29;20055;-72
2023/08/25 01:41:25;;;;;;;7.88;5.72;;;;;;;18.90;90.92;100732.41;4935610;28;20044;-71
2023/08/25 01:43:53;;;;;;;6.72;5.15;;;;;;;18.88;91.38;100722.97;4929306;28;20530;-73
2023/08/25 01:46:20;;;;;;;7.00;5.47;;;;;;;18.86;91.13;100717.09;4896433;29;20070;-72
2023/08/25 01:48:48;;;;;;;9.93;6.70;;;;;;;18.84;91.43;100722.06;4963251;23;21838;-80
2023/08/25 01:51:16;;;;;;;7.82;6.55;;;;;;;18.80;91.22;100728.13;4962706;28;20082;-79
2023/08/25 01:53:43;;;;;;;6.28;5.57;;;;;;;18.76;91.30;100727.19;4968669;28;20027;-79
2023/08/25 01:56:09;;;;;;;8.40;6.25;;;;;;;18.75;91.49;100728.28;4961106;28;20126;-79
2023/08/25 01:58:35;;;;;;;11.10;6.85;;;;;;;18.71;91.55;100718.44;4982975;28;20121;-80
2023/08/25 02:01:03;;;;;;;9.13;7.30;;;;;;;18.65;91.75;100720.50;4932777;28;20051;-80
2023/08/25 02:03:29;;;;;;;7.35;5.30;;;;;;;18.62;91.57;100725.75;4933505;28;20055;-80
2023/08/25 02:05:55;;;;;;;8.60;7.30;;;;;;;18.60;91.76;100723.38;4947310;28;20031;-80
2023/08/25 02:08:20;;;;;;;8.80;6.88;;;;;;;18.57;91.94;100724.03;4950140;28;20495;-79
2023/08/25 02:10:46;;;;;;;8.93;6.50;;;;;;;18.52;92.01;100721.47;4980702;28;20059;-82
2023/08/25 02:13:13;;;;;;;10.45;7.07;;;;;;;18.48;92.04;100709.69;4946743;28;20039;-81
2023/08/25 02:15:43;;;;;;;9.38;8.38;;;;;;;18.48;92.03;100720.53;4950968;28;20053;-80
2023/08/25 02:18:09;;;;;;;8.80;6.72;;;;;;;18.42;92.33;100713.69;4965846;28;20124;-80
2023/08/25 02:20:39;;;;;;;9.25;7.50;;;;;;;18.40;92.63;100713.22;4946435;28;20062;-80
2023/08/25 02:23:05;;;;;;;10.15;8.68;;;;;;;18.35;92.89;100711.47;4948932;28;20139;-79
2023/08/25 02:25:31;;;;;;;10.57;7.78;;;;;;;18.34;93.15;100717.22;4961087;28;20081;-80
2023/08/25 02:27:58;;;;;;;11.52;8.57;;;;;;;18.32;93.51;100708.63;4959879;28;20063;-78
2023/08/25 02:30:23;;;;;;;9.48;8.27;;;;;;;18.30;92.96;100702.72;4948122;28;20445;-81
2023/08/25 02:32:49;;;;;;;9.80;7.57;;;;;;;18.30;93.56;100713.56;4967091;28;20019;-80
2023/08/25 02:35:16;;;;;;;9.35;7.18;;;;;;;18.27;93.41;100713.06;4946838;28;20035;-77
2023/08/25 02:38:00;;;;;;;8.00;6.82;;;;;;;18.26;93.20;100714.19;4945970;28;20041;-79
2023/08/25 02:40:27;;;;;;;9.20;7.93;;;;;;;18.23;93.65;100709.44;4943681;28;20400;-80
2023/08/25 02:42:54;;;;;;;9.70;7.40;;;;;;;18.22;93.82;100707.00;4966099;28;20113;-81
2023/08/25 02:45:23;;;;;;;10.20;7.82;;;;;;;18.22;93.80;100707.84;4946668;28;20170;-80
2023/08/25 02:47:49;;;;;;;10.45;7.78;;;;;;;18.19;93.46;100703.03;4952528;28;20034;-80
2023/08/25 02:50:15;;;;;;;9.82;8.25;;;;;;;18.16;93.72;100686.66;4952232;28;20050;-81
2023/08/25 02:52:40;;;;;;;12.00;7.97;;;;;;;18.14;93.85;100692.38;4951512;28;20652;-81
2023/08/25 02:55:06;;;;;;;13.32;9.02;;;;;;;18.15;93.54;100691.25;4949792;28;20041;-79
2023/08/25 02:57:32;;;;;;;10.70;8.73;;;;;;;18.14;93.72;100684.22;4943326;28;20043;-79
2023/08/25 02:59:57;;;;;;;11.70;8.40;;;;;;;18.15;93.93;100695.88;4925089;28;20042;-80
2023/08/25 03:02:23;;;;;;;8.32;6.18;;;;;;;18.12;93.57;100688.41;4938735;28;20035;-79
2023/08/25 03:04:50;;;;;;;9.27;7.60;;;;;;;18.09;93.89;100687.13;4968002;28;20105;-79
2023/08/25 03:07:16;;;;;;;10.07;8.80;;;;;;;18.10;93.71;100688.72;4967701;28;20085;-80
2023/08/25 03:09:41;;;;;;;11.57;8.88;;;;;;;18.10;93.62;100683.31;4967933;28;20492;-80
2023/08/25 03:12:08;;;;;;;13.45;8.35;;;;;;;18.08;93.53;100685.50;4950380;28;20528;-79
2023/08/25 03:14:33;;;;;;;11.05;8.77;;;;;;;18.04;93.71;100684.59;4962800;28;20047;-80
2023/08/25 03:16:59;;;;;;;13.38;9.68;;;;;;;18.04;93.76;100683.78;4940498;28;20423;-80
2023/08/25 03:19:25;;;;;;;10.80;8.57;;;;;;;18.02;93.41;100681.41;4950428;28;20145;-81
2023/08/25 03:21:52;;;;;;;10.68;8.60;;;;;;;17.99;93.71;100676.63;4966928;28;20038;-80
2023/08/25 03:24:18;;;;;;;14.90;10.02;;;;;;;17.96;93.86;100678.06;4950879;28;20053;-80
2023/08/25 03:26:44;;;;;;;12.38;8.32;;;;;;;17.94;93.98;100674.84;4981451;28;20046;-80
2023/08/25 03:29:09;;;;;;;11.73;10.52;;;;;;;17.91;93.92;100672.81;4934157;28;20412;-79
2023/08/25 03:31:35;;;;;;;13.25;9.32;;;;;;;17.90;93.93;100665.00;4969322;28;20571;-79
2023/08/25 03:34:02;;;;;;;14.18;9.63;;;;;;;17.89;94.04;100666.13;4950721;28;20473;-80
2023/08/25 03:36:27;;;;;;;13.98;9.75;;;;;;;17.86;93.75;100666.75;4948937;28;20038;-78
2023/08/25 03:38:53;;;;;;;11.27;8.55;;;;;;;17.84;93.95;100658.94;4952694;28;20053;-80
2023/08/25 03:41:19;;;;;;;12.55;10.73;;;;;;;17.81;94.29;100656.84;4936988;28;20038;-80
2023/08/25 03:43:46;;;;;;;14.90;10.07;;;;;;;17.78;94.31;100664.84;4937411;28;20039;-79
2023/08/25 03:46:13;;;;;;;16.15;9.45;;;;;;;17.77;94.36;100668.66;4952403;28;20045;-80
2023/08/25 03:48:39;;;;;;;11.38;8.88;;;;;;;17.74;94.34;100670.09;4951762;28;20041;-80
2023/08/25 03:51:06;;;;;;;12.10;9.68;;;;;;;17.73;94.34;100674.72;4964997;28;20040;-81
2023/08/25 03:53:33;;;;;;;12.27;8.43;;;;;;;17.72;94.75;100675.03;4952185;28;20102;-80
2023/08/25 03:56:00;;;;;;;16.40;10.73;;;;;;;17.72;94.80;100670.41;4944953;28;20041;-79
2023/08/25 03:58:27;;;;;;;11.60;10.30;;;;;;;17.71;94.39;100679.66;4965694;28;20038;-79
2023/08/25 04:00:54;;;;;;;13.55;9.07;;;;;;;17.69;94.41;100673.75;4953440;28;20038;-81
2023/08/25 04:03:21;;;;;;;12.45;9.48;;;;;;;17.70;94.57;100675.34;4935744;28;20031;-79
2023/08/25 04:05:46;;;;;;;11.98;9.93;;;;;;;17.68;94.48;100671.34;4950305;28;20051;-80
2023/08/25 04:08:12;;;;;;;16.13;10.25;;;;;;;17.67;94.73;100677.88;4982109;28;20038;-80
2023/08/25 04:10:39;;;;;;;15.45;10.98;;;;;;;17.66;94.77;100671.66;4933361;28;20039;-79
2023/08/25 04:13:08;;;;;;;10.65;8.20;;;;;;;17.65;94.56;100664.66;4950848;28;20030;-79
2023/08/25 04:15:36;;;;;;;13.35;10.15;;;;;;;17.64;95.26;100670.38;4934423;28;20077;-79
2023/08/25 04:18:01;;;;;;;13.20;8.95;;;;;;;17.62;95.38;100668.00;4915497;28;20050;-79
2023/08/25 04:20:27;;;;;;;13.75;10.20;;;;;;;17.61;95.86;100657.47;4966338;28;20034;-81
2023/08/25 04:22:53;;;;;;;17.08;10.70;;;;;;;17.61;95.64;100671.84;4980239;28;20272;-80
2023/08/25 04:25:19;;;;;;;18.80;11.98;;;;;;;17.59;95.58;100668.63;4947336;28;20173;-78
2023/08/25 04:27:44;;;;;;;15.77;11.27;;;;;;;17.59;95.83;100663.22;4949143;28;20046;-79
2023/08/25 04:30:11;;;;;;;13.15;10.55;;;;;;;17.59;95.90;100660.50;4948921;28;20034;-79
2023/08/25 04:32:37;;;;;;;16.13;11.77;;;;;;;17.60;95.75;100664.81;4935729;28;20063;-78
2023/08/25 04:35:03;;;;;;;15.88;11.55;;;;;;;17.59;95.98;100663.22;4950165;28;20080;-78
2023/08/25 04:37:30;;;;;;;14.98;10.48;;;;;;;17.59;96.14;100674.03;4951243;28;20038;-78
2023/08/25 04:39:56;;;;;;;17.95;11.35;;;;;;;17.60;96.20;100669.41;4965161;28;20100;-78
2023/08/25 04:42:23;;;;;;;16.02;12.13;;;;;;;17.61;96.72;100666.41;4935959;28;20026;-79
2023/08/25 04:44:49;;;;;;;18.77;13.77;;;;;;;17.58;96.65;100661.63;4939926;28;20093;-77
2023/08/25 04:47:16;;;;;;;21.27;15.10;;;;;;;17.62;97.01;100667.22;4967734;28;20518;-77
2023/08/25 04:49:43;;;;;;;19.83;13.38;;;;;;;17.65;97.34;100663.84;4951035;28;20061;-78
2023/08/25 04:52:09;;;;;;;18.85;12.35;;;;;;;17.67;97.58;100675.16;4966780;28;20519;-79
2023/08/25 04:54:35;;;;;;;18.38;13.73;;;;;;;17.69;97.40;100676.44;4948852;28;20045;-79
2023/08/25 04:57:01;;;;;;;20.80;14.95;;;;;;;17.70;97.71;100669.91;4947358;28;20574;-77
2023/08/25 04:59:27;;;;;;;20.05;12.95;;;;;;;17.72;97.59;100678.53;4938822;28;20037;-77
2023/08/25 05:01:53;;;;;;;18.27;13.48;;;;;;;17.77;97.94;100676.78;4982888;28;20039;-77
2023/08/25 05:04:18;;;;;;;19.30;13.95;;;;;;;17.76;97.85;100667.09;4951203;28;20039;-78
2023/08/25 05:06:44;;;;;;;17.30;14.00;;;;;;;17.81;97.83;100672.31;4952072;28;20105;-76
2023/08/25 05:09:12;;;;;;;20.58;14.00;;;;;;;17.86;97.92;100662.13;4976804;28;20030;-77
2023/08/25 05:11:39;;;;;;;25.08;14.45;;;;;;;17.88;98.02;100665.31;4983014;28;20078;-79
2023/08/25 05:14:05;;;;;;;25.83;16.70;;;;;;;17.89;98.19;100666.91;4948467;28;20076;-79
2023/08/25 05:16:31;;;;;;;21.67;16.02;;;;;;;17.95;98.23;100670.22;4964989;28;20065;-78
2023/08/25 05:19:02;;;;;;;20.08;13.48;;;;;;;17.97;98.50;100673.44;4967619;28;20038;-79
2023/08/25 05:21:28;;;;;;;17.45;10.95;;;;;;;18.00;98.04;100678.19;4957738;28;20057;-80
2023/08/25 05:24:17;;;;;;;23.17;15.45;;;;;;;18.05;98.40;100685.38;4967051;28;20035;-79
2023/08/25 05:26:43;;;;;;;20.17;14.15;;;;;;;18.06;98.60;100676.91;4950293;28;20046;-80
2023/08/25 05:29:09;;;;;;;23.65;17.13;;;;;;;18.09;98.59;100679.00;4921930;28;20513;-77
2023/08/25 05:31:37;;;;;;;25.10;17.88;;;;;;;18.19;98.62;100677.84;4965317;28;20126;-79
2023/08/25 05:34:29;;;;;;;29.80;22.65;;;;;;;18.24;98.57;100673.06;4968988;28;20038;-81
2023/08/25 05:36:59;;;;;;;21.75;17.00;;;;;;;18.27;98.22;100675.13;4952208;28;20042;-81
2023/08/25 05:39:25;;;;;;;27.60;19.52;;;;;;;18.34;98.54;100676.53;4935841;28;20389;-78
2023/08/25 05:41:51;;;;;;;31.58;21.48;;;;;;;18.38;98.54;100662.03;4966334;28;20034;-76
2023/08/25 05:44:17;;;;;;;26.30;20.58;;;;;;;18.46;98.26;100669.34;4968121;28;20034;-79
2023/08/25 05:46:44;;;;;;;25.65;18.80;;;;;;;18.51;97.88;100665.66;4971462;28;20780;-80
2023/08/25 05:49:10;;;;;;;29.85;21.90;;;;;;;18.58;97.41;100665.94;4951653;28;20039;-80
2023/08/25 05:51:35;;;;;;;25.15;18.65;;;;;;;18.63;97.41;100668.50;4953758;28;20495;-78
2023/08/25 05:54:02;;;;;;;29.13;20.65;;;;;;;18.70;97.09;100674.22;4938203;28;20494;-78
2023/08/25 05:56:27;;;;;;;25.73;18.65;;;;;;;18.73;97.38;100672.78;4967712;28;20045;-80
2023/08/25 05:58:54;;;;;;;28.35;20.08;;;;;;;18.80;96.69;100676.56;4967374;28;20030;-79
2023/08/25 06:01:20;;;;;;;24.90;17.23;;;;;;;18.86;96.68;100670.97;4951952;28;20052;-79
2023/08/25 06:03:45;;;;;;;25.25;19.08;;;;;;;18.92;96.66;100669.66;4970852;28;20038;-79
2023/08/25 06:06:12;;;;;;;21.70;16.02;;;;;;;18.97;96.81;100677.63;4966254;28;20066;-78
2023/08/25 06:08:38;;;;;;;21.15;15.60;;;;;;;19.02;97.17;100674.69;4949252;28;20065;-79
2023/08/25 06:11:04;;;;;;;26.83;18.27;;;;;;;19.09;97.34;100669.56;4950234;28;20121;-80
2023/08/25 06:13:29;;;;;;;25.65;18.48;;;;;;;19.16;97.08;100667.09;4968375;28;20027;-80
2023/08/25 06:15:55;;;;;;;27.90;20.98;;;;;;;19.22;96.46;100673.94;4984707;28;20056;-82
2023/08/25 06:18:20;;;;;;;29.23;20.33;;;;;;;19.29;95.48;100674.22;4945827;28;20034;-80
2023/08/25 06:20:50;;;;;;;23.23;17.83;;;;;;;19.35;95.33;100675.63;4935709;28;20034;-79
2023/08/25 06:23:15;;;;;;;25.52;18.90;;;;;;;19.39;95.66;100666.81;4959136;28;20834;-79
2023/08/25 06:25:41;;;;;;;24.63;19.98;;;;;;;19.44;94.77;100672.84;4963078;28;20069;-79
2023/08/25 06:28:06;;;;;;;27.48;19.27;;;;;;;19.49;94.01;100680.00;4950892;28;20129;-80
2023/08/25 06:30:35;;;;;;;29.38;21.95;;;;;;;19.52;93.54;100676.63;4964867;28;20057;-80
2023/08/25 06:33:02;;;;;;;27.60;20.38;;;;;;;19.60;93.72;100683.94;4952974;28;20026;-79
2023/08/25 06:35:29;;;;;;;31.05;22.38;;;;;;;19.60;94.11;100678.50;4964524;28;20046;-79
2023/08/25 06:37:55;;;;;;;30.15;21.73;;;;;;;19.67;92.88;100680.69;4966587;28;20046;-80
2023/08/25 06:40:21;;;;;;;29.33;22.52;;;;;;;19.73;93.17;100672.00;4935196;28;20085;-79
2023/08/25 06:42:47;;;;;;;31.60;23.77;;;;;;;19.78;93.15;100674.53;4982440;28;20084;-81
2023/08/25 06:45:13;;;;;;;29.17;24.00;;;;;;;19.82;92.58;100690.94;4945514;28;20073;-81
2023/08/25 06:47:39;;;;;;;28.25;21.02;;;;;;;19.86;92.65;100698.13;4964394;28;20058;-80
2023/08/25 06:50:05;;;;;;;34.88;25.35;;;;;;;19.84;91.75;100688.69;4950007;28;20039;-80
2023/08/25 06:52:32;;;;;;;30.15;20.67;;;;;;;19.96;91.46;100690.66;4948397;28;20030;-80
2023/08/25 06:54:58;;;;;;;26.58;20.67;;;;;;;20.02;91.71;100700.22;4967498;28;20038;-80
2023/08/25 06:57:23;;;;;;;26.98;22.13;;;;;;;20.09;92.13;100695.03;4966570;28;20042;-81
2023/08/25 06:59:50;;;;;;;27.35;21.63;;;;;;;20.13;90.66;100690.53;4982745;28;20089;-79
2023/08/25 07:02:16;;;;;;;28.85;22.02;;;;;;;20.16;89.72;100695.28;4950675;28;20121;-79
2023/08/25 07:04:43;;;;;;;25.85;22.13;;;;;;;20.17;89.21;100689.50;4952491;28;20042;-80
2023/08/25 07:07:09;;;;;;;23.65;19.30;;;;;;;20.21;89.59;100691.56;4951394;28;20678;-81
2023/08/25 07:09:35;;;;;;;27.90;21.33;;;;;;;20.24;89.55;100697.09;4963216;28;20584;-80
2023/08/25 07:12:03;;;;;;;26.00;20.25;;;;;;;20.26;90.54;100694.88;4957134;28;20039;-79
2023/08/25 07:14:31;;;;;;;28.95;21.63;;;;;;;20.27;91.66;100696.44;4979372;28;20070;-81
2023/08/25 07:16:57;;;;;;;28.02;22.70;;;;;;;20.21;89.95;100702.44;4948539;28;20042;-80
2023/08/25 07:19:23;;;;;;;25.55;20.02;;;;;;;20.23;90.63;100700.97;4967680;28;20062;-80
2023/08/25 07:21:49;;;;;;;26.83;21.05;;;;;;;20.23;90.45;100709.13;4968562;28;20109;-81
2023/08/25 07:24:14;;;;;;;26.05;22.63;;;;;;;20.16;89.60;100715.09;4963386;28;20069;-81
2023/08/25 07:26:40;;;;;;;30.42;25.80;;;;;;;20.13;89.16;100712.28;4951567;28;20081;-81
2023/08/25 07:29:06;;;;;;;29.63;22.65;;;;;;;20.10;89.54;100718.34;4936394;28;20379;-80
2023/08/25 07:31:31;;;;;;;26.48;21.80;;;;;;;20.09;90.11;100716.78;4947806;28;20400;-80
2023/08/25 07:33:57;;;;;;;23.52;18.65;;;;;;;20.10;90.44;100724.59;4968732;28;20211;-80
2023/08/25 07:36:24;;;;;;;24.27;18.60;;;;;;;20.08;91.58;100715.19;4966620;28;20045;-79
2023/08/25 07:38:50;;;;;;;28.42;22.35;;;;;;;20.04;91.47;100711.53;4983731;28;20045;-80
2023/08/25 07:41:20;;;;;;;21.42;18.67;;;;;;;20.01;91.82;100715.72;4968366;28;20038;-82
2023/08/25 07:43:46;;;;;;;25.23;20.55;;;;;;;19.95;91.08;100713.56;4982250;28;20092;-81
2023/08/25 07:46:12;;;;;;;24.02;20.75;;;;;;;19.91;91.46;100716.13;4949709;28;20042;-80
2023/08/25 07:48:50;;;;;;;19.73;16.73;;;;;;;19.89;92.09;100708.31;4949589;28;20045;-81
2023/08/25 07:51:16;;;;;;;25.42;19.10;;;;;;;19.90;92.68;100699.03;4899512;29;20156;-72
2023/08/25 07:53:42;;;;;;;25.55;19.02;;;;;;;19.88;92.00;100723.03;4886481;29;20495;-73
2023/08/25 07:56:08;;;;;;;23.95;16.95;;;;;;;19.89;91.06;100727.34;4897504;29;20052;-72
2023/08/25 07:58:33;;;;;;;24.08;18.67;;;;;;;19.88;91.07;100728.47;4935265;28;21206;-75
2023/08/25 08:00:59;;;;;;;24.08;18.48;;;;;;;19.90;90.86;100731.63;4921688;29;20110;-72
2023/08/25 08:03:24;;;;;;;21.08;17.55;;;;;;;19.94;91.66;100729.06;4906859;29;20044;-73
2023/08/25 08:05:50;;;;;;;22.42;17.48;;;;;;;19.91;90.92;100729.72;4907720;29;20497;-71
2023/08/25 08:08:16;;;;;;;24.58;17.80;;;;;;;19.95;91.18;100724.41;4912724;29;20040;-73
2023/08/25 08:10:42;;;;;;;23.67;16.58;;;;;;;19.98;92.16;100726.47;4920697;29;20028;-73
2023/08/25 08:13:08;;;;;;;20.55;14.27;;;;;;;20.01;91.90;100725.81;4923913;29;20023;-71
2023/08/25 08:15:33;;;;;;;18.67;14.57;;;;;;;20.05;91.89;100724.00;4905913;29;20032;-75
2023/08/25 08:17:59;;;;;;;19.42;15.10;;;;;;;20.16;90.93;100722.47;4892666;29;20095;-73
2023/08/25 08:20:27;;;;;;;20.58;16.40;;;;;;;20.25;89.61;100731.31;4904902;29;20560;-73
2023/08/25 08:22:53;;;;;;;19.10;13.32;;;;;;;20.38;88.75;100724.00;4921740;29;20051;-72
2023/08/25 08:25:19;;;;;;;16.40;13.60;;;;;;;20.50;88.82;100718.63;4909565;29;20040;-75
2023/08/25 08:27:46;;;;;;;19.58;15.05;;;;;;;20.63;88.03;100722.16;4910659;29;20493;-71
2023/08/25 08:30:14;;;;;;;19.60;14.90;;;;;;;20.71;87.14;100708.47;4889420;29;20044;-72
2023/08/25 08:32:40;;;;;;;19.48;12.60;;;;;;;20.79;86.27;100714.13;4920664;29;20180;-72
2023/08/25 08:35:07;;;;;;;17.20;12.75;;;;;;;20.87;86.30;100724.94;4920626;29;20118;-72
2023/08/25 08:37:33;;;;;;;18.02;13.88;;;;;;;20.95;85.90;100736.84;4911594;29;20549;-72
2023/08/25 08:40:00;;;;;;;18.83;13.60;;;;;;;20.99;85.20;100727.63;4918898;29;20656;-74
2023/08/25 08:42:28;;;;;;;15.00;11.10;;;;;;;21.09;84.90;100722.91;4903957;29;20040;-72
2023/08/25 08:44:56;;;;;;;21.00;14.75;;;;;;;21.13;84.45;100723.78;4923333;29;20048;-70
2023/08/25 08:47:22;;;;;;;20.13;13.55;;;;;;;21.20;84.49;100737.63;4890760;29;20046;-72
2023/08/25 08:49:49;;;;;;;24.25;16.85;;;;;;;21.22;83.62;100732.66;4920347;29;20044;-71
2023/08/25 08:52:16;;;;;;;18.98;13.15;;;;;;;21.28;83.71;100739.50;4922785;29;20094;-72
2023/08/25 08:54:43;;;;;;;21.20;14.73;;;;;;;21.33;83.34;100733.78;4931785;28;20048;-71
2023/08/25 08:57:09;;;;;;;17.55;12.02;;;;;;;21.38;83.12;100724.59;4910146;29;20039;-73
2023/08/25 08:59:35;;;;;;;16.35;12.60;;;;;;;21.47;83.66;100736.16;4906718;29;20055;-71
2023/08/25 09:02:03;;;;;;;14.15;11.20;;;;;;;21.49;82.97;100733.91;4909792;29;20093;-72
2023/08/25 09:04:29;;;;;;;18.50;12.38;;;;;;;21.51;82.15;100737.06;4924471;29;20044;-72
2023/08/25 09:06:58;;;;;;;14.73;10.15;;;;;;;21.51;82.55;100737.84;4924439;29;20118;-71
2023/08/25 09:09:24;;;;;;;12.20;9.88;;;;;;;21.48;82.18;100744.00;4909806;29;20039;-73
2023/08/25 09:11:50;;;;;;;14.23;10.63;;;;;;;21.50;84.06;100747.16;4911189;29;20047;-74
2023/08/25 09:14:23;;;;;;;14.52;10.95;;;;;;;21.47;83.53;100757.94;4925471;29;20401;-74
2023/08/25 09:16:54;;;;;;;14.13;10.13;;;;;;;21.43;83.11;100763.31;4921116;29;20040;-74
2023/08/25 09:19:19;;;;;;;14.82;9.80;;;;;;;21.41;82.85;100759.34;4907092;29;20048;-71
2023/08/25 09:21:46;;;;;;;12.00;9.50;;;;;;;21.41;84.24;100753.91;4921507;29;20095;-71
2023/08/25 09:24:17;;;;;;;13.18;9.90;;;;;;;21.35;83.64;100769.66;4926405;29;20054;-71
2023/08/25 09:26:43;;;;;;;15.05;11.13;;;;;;;21.37;84.71;100770.13;4889588;29;20036;-73
2023/08/25 09:29:10;;;;;;;17.00;10.57;;;;;;;21.38;84.45;100768.97;4923571;29;20051;-74
2023/08/25 09:31:36;;;;;;;16.63;10.82;;;;;;;21.36;83.42;100763.09;4915009;29;20047;-72
2023/08/25 09:34:07;;;;;;;14.38;10.50;;;;;;;21.37;84.27;100763.88;4909118;29;20043;-73
2023/08/25 09:36:33;;;;;;;12.00;10.10;;;;;;;21.37;84.12;100769.31;4921453;29;20036;-71
2023/08/25 09:39:01;;;;;;;14.25;10.70;;;;;;;21.34;84.67;100778.97;4907741;29;20046;-75
2023/08/25 09:41:29;;;;;;;21.45;13.80;;;;;;;21.31;83.97;100776.13;4908618;29;20051;-72
2023/08/25 09:44:02;;;;;;;14.88;11.80;;;;;;;21.32;83.69;100773.06;4925366;29;20039;-72
2023/08/25 09:46:29;;;;;;;18.55;13.35;;;;;;;21.32;83.57;100772.28;4908876;29;20083;-72
2023/08/25 09:49:12;;;;;;;16.23;12.23;;;;;;;21.29;83.53;100773.75;4907630;29;20051;-71
2023/08/25 09:51:44;;;;;;;13.40;11.85;;;;;;;21.29;84.04;100768.31;4922285;29;20039;-73
2023/08/25 09:54:12;;;;;;;13.90;11.20;;;;;;;21.29;83.72;100773.75;4909142;29;20114;-72
2023/08/25 09:56:42;;;;;;;14.93;11.43;;;;;;;21.27;83.39;100782.25;4908275;29;20050;-75
2023/08/25 09:59:08;;;;;;;14.60;10.77;;;;;;;21.32;83.50;100780.44;4923029;29;20063;-74
2023/08/25 10:01:39;;;;;;;13.55;10.93;;;;;;;21.36;83.68;100784.88;4905146;29;20091;-73
2023/08/25 10:04:05;;;;;;;13.43;10.82;;;;;;;21.38;83.91;100790.75;4907780;29;20059;-72
2023/08/25 10:06:34;;;;;;;15.30;10.73;;;;;;;21.40;83.21;100796.66;4924275;29;20123;-73
2023/08/25 10:09:00;;;;;;;15.25;10.80;;;;;;;21.42;84.13;100805.31;4921635;29;20049;-72
2023/08/25 10:11:29;;;;;;;13.75;11.35;;;;;;;21.45;83.63;100790.19;4923415;29;20118;-73
2023/08/25 10:13:56;;;;;;;13.77;9.73;;;;;;;21.47;83.36;100786.00;4908134;29;20034;-71
2023/08/25 10:16:25;;;;;;;10.43;8.75;;;;;;;21.51;85.11;100780.66;4909674;29;20035;-73
2023/08/25 10:18:55;;;;;;;10.25;7.82;;;;;;;21.56;86.34;100782.38;4910091;29;20042;-73
2023/08/25 10:21:20;;;;;;;10.35;6.97;;;;;;;21.60;86.38;100783.25;4908797;29;20036;-73
2023/08/25 10:23:50;;;;;;;10.55;7.75;;;;;;;21.59;85.15;100793.34;4919999;29;20044;-73
2023/08/25 10:26:16;;;;;;;13.45;10.38;;;;;;;21.60;84.30;100788.69;4892266;29;20078;-73
2023/08/25 10:28:44;;;;;;;12.32;9.35;;;;;;;21.62;82.75;100781.00;4904647;29;20082;-70
2023/08/25 10:31:10;;;;;;;12.15;8.82;;;;;;;21.66;83.04;100781.88;4922759;29;20070;-72
2023/08/25 10:33:46;;;;;;;13.93;9.10;;;;;;;21.69;82.11;100773.03;4919743;29;20111;-72
2023/08/25 10:36:19;;;;;;;11.88;10.55;;;;;;;21.72;81.92;100777.78;4916563;29;20051;-71
2023/08/25 10:38:54;;;;;;;12.55;9.38;;;;;;;21.74;82.30;100783.69;4918256;29;20126;-75
2023/08/25 10:41:21;;;;;;;12.45;9.30;;;;;;;21.74;83.46;100794.59;4911225;29;20096;-75
2023/08/25 10:43:50;;;;;;;10.35;7.10;;;;;;;21.70;84.48;100801.88;4921796;29;20043;-74
2023/08/25 10:46:22;;;;;;;8.50;6.10;;;;;;;21.66;85.47;100796.31;4921538;29;20228;-74
2023/08/25 10:48:52;;;;;;;11.52;7.70;;;;;;;21.66;83.74;100792.78;4924286;29;20698;-72
2023/08/25 10:51:20;;;;;;;12.95;8.93;;;;;;;21.67;83.20;100786.97;4902009;29;20261;-73
2023/08/25 10:53:55;;;;;;;12.18;7.72;;;;;;;21.67;83.85;100789.72;4912496;29;20093;-72
2023/08/25 10:56:24;;;;;;;10.95;6.20;;;;;;;21.66;85.51;100781.88;4921561;29;20091;-74
2023/08/25 10:58:56;;;;;;;8.25;5.90;;;;;;;21.64;85.73;100789.63;4936846;28;20063;-73
2023/08/25 11:01:55;;;;;;;8.73;5.85;;;;;;;21.62;85.91;100792.69;4921560;29;20039;-74
2023/08/25 11:04:21;;;;;;;7.70;5.78;;;;;;;21.60;84.84;100778.59;4914079;29;20051;-74
2023/08/25 11:06:48;;;;;;;9.27;6.95;;;;;;;21.65;83.92;100783.81;4906771;29;20651;-74
2023/08/25 11:09:23;;;;;;;13.63;8.77;;;;;;;21.64;83.96;100800.53;4919111;29;20059;-71
2023/08/25 11:11:56;;;;;;;12.10;8.40;;;;;;;21.68;83.43;100780.41;4915493;29;20481;-70
2023/08/25 11:14:30;;;;;;;14.57;10.32;;;;;;;21.73;83.54;100787.53;4924485;29;20163;-73
2023/08/25 11:16:57;;;;;;;16.15;12.57;;;;;;;21.72;82.62;100802.31;4886633;29;20493;-72